sensor_id;sensor_type;location;lat;lon;timestamp;pressure;altitude;pressure_sealevel;temperature;humidity
71956;BME280;59829;50.562;6.258;2023-07-24T00:09:26;94919.47;;;18.35;100.00
71956;BME280;59829;50.562;6.258;2023-07-24T00:19:26;94916.66;;;18.30;100.00
71956;BME280;59829;50.562;6.258;2023-07-24T00:29:27;94893.13;;;18.25;100.00
71956;BME280;59829;50.562;6.258;2023-07-24T00:39:27;94881.34;;;18.23;100.00
71956;BME280;59829;50.562;6.258;2023-07-24T00:49:29;94869.53;;;18.20;100.00
71956;BME280;59829;50.562;6.258;2023-07-24T00:59:30;94860.97;;;18.20;100.00
71956;BME280;59829;50.562;6.258;2023-07-24T01:09:30;94859.38;;;18.19;100.00
71956;BME280;59829;50.562;6.258;2023-07-24T01:19:41;94863.38;;;18.21;100.00
71956;BME280;59829;50.562;6.258;2023-07-24T01:29:42;94854.63;;;18.22;100.00
71956;BME280;59829;50.562;6.258;2023-07-24T01:39:44;94837.44;;;18.21;100.00
71956;BME280;59829;50.562;6.258;2023-07-24T01:49:44;94818.69;;;18.19;100.00
71956;BME280;59829;50.562;6.258;2023-07-24T01:59:44;94799.94;;;18.17;100.00
71956;BME280;59829;50.562;6.258;2023-07-24T02:09:45;94783.59;;;18.17;100.00
71956;BME280;59829;50.562;6.258;2023-07-24T02:19:45;94767.63;;;18.13;100.00
71956;BME280;59829;50.562;6.258;2023-07-24T02:29:46;94758.25;;;18.12;100.00
71956;BME280;59829;50.562;6.258;2023-07-24T02:39:46;94734.94;;;18.05;100.00
71956;BME280;59829;50.562;6.258;2023-07-24T02:49:46;94719.34;;;17.99;100.00
71956;BME280;59829;50.562;6.258;2023-07-24T02:59:47;94712.56;;;17.91;100.00
71956;BME280;59829;50.562;6.258;2023-07-24T03:09:47;94708.91;;;17.86;100.00
71956;BME280;59829;50.562;6.258;2023-07-24T03:19:48;94713.28;;;17.78;100.00
71956;BME280;59829;50.562;6.258;2023-07-24T03:29:49;94702.94;;;17.78;100.00
71956;BME280;59829;50.562;6.258;2023-07-24T03:39:49;94685.38;;;17.74;100.00
71956;BME280;59829;50.562;6.258;2023-07-24T03:49:50;94677.53;;;17.67;100.00
71956;BME280;59829;50.562;6.258;2023-07-24T03:59:50;94709.78;;;17.58;100.00
71956;BME280;59829;50.562;6.258;2023-07-24T04:09:51;94696.78;;;17.52;100.00
71956;BME280;59829;50.562;6.258;2023-07-24T04:19:51;94699.63;;;17.57;100.00
71956;BME280;59829;50.562;6.258;2023-07-24T04:29:51;94709.19;;;17.56;100.00
71956;BME280;59829;50.562;6.258;2023-07-24T04:39:52;94717.56;;;17.58;100.00
71956;BME280;59829;50.562;6.258;2023-07-24T04:49:52;94737.88;;;17.61;100.00
71956;BME280;59829;50.562;6.258;2023-07-24T04:59:52;94720.34;;;17.63;100.00
71956;BME280;59829;50.562;6.258;2023-07-24T05:09:53;94731.91;;;17.67;100.00
71956;BME280;59829;50.562;6.258;2023-07-24T05:19:53;94737.56;;;17.71;100.00
71956;BME280;59829;50.562;6.258;2023-07-24T05:29:53;94736.38;;;17.73;100.00
71956;BME280;59829;50.562;6.258;2023-07-24T05:39:53;94749.16;;;17.82;100.00
71956;BME280;59829;50.562;6.258;2023-07-24T05:49:54;94742.84;;;17.91;100.00
71956;BME280;59829;50.562;6.258;2023-07-24T05:59:54;94756.00;;;17.96;100.00
71956;BME280;59829;50.562;6.258;2023-07-24T06:09:56;94746.47;;;18.03;100.00
71956;BME280;59829;50.562;6.258;2023-07-24T06:19:56;94765.63;;;18.08;100.00
71956;BME280;59829;50.562;6.258;2023-07-24T06:29:57;94747.09;;;18.12;100.00
71956;BME280;59829;50.562;6.258;2023-07-24T06:39:57;94742.53;;;18.14;100.00
71956;BME280;59829;50.562;6.258;2023-07-24T06:49:57;94741.13;;;18.11;100.00
71956;BME280;59829;50.562;6.258;2023-07-24T06:59:57;94721.38;;;18.10;100.00
71956;BME280;59829;50.562;6.258;2023-07-24T07:09:58;94709.44;;;18.16;100.00
71956;BME280;59829;50.562;6.258;2023-07-24T07:19:58;94708.63;;;18.22;100.00
71956;BME280;59829;50.562;6.258;2023-07-24T07:29:58;94712.66;;;18.24;100.00
71956;BME280;59829;50.562;6.258;2023-07-24T07:39:59;94712.25;;;18.27;100.00
71956;BME280;59829;50.562;6.258;2023-07-24T07:49:59;94720.22;;;18.32;100.00
71956;BME280;59829;50.562;6.258;2023-07-24T07:59:59;94714.88;;;18.47;100.00
71956;BME280;59829;50.562;6.258;2023-07-24T08:09:59;94693.38;;;18.66;100.00
71956;BME280;59829;50.562;6.258;2023-07-24T08:20:00;94700.38;;;18.79;100.00
71956;BME280;59829;50.562;6.258;2023-07-24T08:30:00;94692.19;;;18.82;100.00
71956;BME280;59829;50.562;6.258;2023-07-24T08:40:00;94690.00;;;18.92;100.00
71956;BME280;59829;50.562;6.258;2023-07-24T08:50:01;94693.56;;;18.91;100.00
71956;BME280;59829;50.562;6.258;2023-07-24T09:00:03;94690.00;;;18.92;100.00
71956;BME280;59829;50.562;6.258;2023-07-24T09:10:05;94663.66;;;18.95;100.00
71956;BME280;59829;50.562;6.258;2023-07-24T09:20:06;94651.63;;;19.08;100.00
71956;BME280;59829;50.562;6.258;2023-07-24T09:30:14;94622.06;;;19.22;100.00
71956;BME280;59829;50.562;6.258;2023-07-24T09:40:15;94598.06;;;19.33;100.00
71956;BME280;59829;50.562;6.258;2023-07-24T09:50:15;94577.41;;;19.51;100.00
71956;BME280;59829;50.562;6.258;2023-07-24T10:00:16;94568.59;;;19.66;100.00
71956;BME280;59829;50.562;6.258;2023-07-24T10:10:17;94577.97;;;19.67;100.00
71956;BME280;59829;50.562;6.258;2023-07-24T10:20:17;94583.00;;;19.62;100.00
71956;BME280;59829;50.562;6.258;2023-07-24T10:30:28;94583.97;;;19.61;100.00
71956;BME280;59829;50.562;6.258;2023-07-24T10:40:29;94594.78;;;19.64;100.00
71956;BME280;59829;50.562;6.258;2023-07-24T10:50:41;94581.50;;;19.79;100.00
71956;BME280;59829;50.562;6.258;2023-07-24T11:00:45;94569.41;;;19.91;100.00
71956;BME280;59829;50.562;6.258;2023-07-24T11:10:52;94577.28;;;20.09;100.00
71956;BME280;59829;50.562;6.258;2023-07-24T11:20:54;94584.84;;;20.17;100.00
71956;BME280;59829;50.562;6.258;2023-07-24T11:31:02;94572.34;;;20.33;100.00
71956;BME280;59829;50.562;6.258;2023-07-24T11:41:02;94547.25;;;20.45;98.99
71956;BME280;59829;50.562;6.258;2023-07-24T11:51:02;94566.28;;;20.39;97.09
71956;BME280;59829;50.562;6.258;2023-07-24T12:01:03;94574.38;;;20.31;95.61
71956;BME280;59829;50.562;6.258;2023-07-24T12:11:03;94590.78;;;19.93;93.78
71956;BME280;59829;50.562;6.258;2023-07-24T12:21:03;94574.25;;;19.87;95.67
71956;BME280;59829;50.562;6.258;2023-07-24T12:31:04;94562.63;;;19.90;96.90
71956;BME280;59829;50.562;6.258;2023-07-24T12:41:04;94554.13;;;20.08;98.72
71956;BME280;59829;50.562;6.258;2023-07-24T12:51:04;94543.69;;;20.14;99.49
71956;BME280;59829;50.562;6.258;2023-07-24T13:01:05;94561.59;;;20.23;99.03
71956;BME280;59829;50.562;6.258;2023-07-24T13:11:06;94563.53;;;20.34;98.01
71956;BME280;59829;50.562;6.258;2023-07-24T13:21:07;94615.19;;;19.92;94.98
71956;BME280;59829;50.562;6.258;2023-07-24T13:31:26;94640.94;;;19.55;94.11
71956;BME280;59829;50.562;6.258;2023-07-24T13:41:28;94646.41;;;19.34;93.87
71956;BME280;59829;50.562;6.258;2023-07-24T13:51:28;94642.84;;;19.15;93.86
71956;BME280;59829;50.562;6.258;2023-07-24T14:01:29;94638.47;;;18.89;93.23
71956;BME280;59829;50.562;6.258;2023-07-24T14:11:29;94637.53;;;18.77;93.27
71956;BME280;59829;50.562;6.258;2023-07-24T14:21:31;94631.34;;;18.78;93.13
71956;BME280;59829;50.562;6.258;2023-07-24T14:31:31;94614.13;;;19.04;93.48
71956;BME280;59829;50.562;6.258;2023-07-24T14:41:31;94612.25;;;19.24;93.14
71956;BME280;59829;50.562;6.258;2023-07-24T14:51:32;94604.84;;;19.34;92.33
71956;BME280;59829;50.562;6.258;2023-07-24T15:01:32;94612.41;;;19.42;90.78
71956;BME280;59829;50.562;6.258;2023-07-24T15:11:33;94624.59;;;19.42;89.36
71956;BME280;59829;50.562;6.258;2023-07-24T15:21:33;94631.22;;;19.31;88.43
71956;BME280;59829;50.562;6.258;2023-07-24T15:31:33;94627.19;;;19.48;88.18
71956;BME280;59829;50.562;6.258;2023-07-24T15:41:36;94644.34;;;19.63;87.24
71956;BME280;59829;50.562;6.258;2023-07-24T15:51:37;94655.13;;;19.60;86.07
71956;BME280;59829;50.562;6.258;2023-07-24T16:01:37;94656.28;;;19.70;84.91
71956;BME280;59829;50.562;6.258;2023-07-24T16:11:37;94678.69;;;19.65;83.36
71956;BME280;59829;50.562;6.258;2023-07-24T16:21:37;94686.25;;;19.79;82.94
71956;BME280;59829;50.562;6.258;2023-07-24T16:31:38;94703.38;;;19.87;82.07
71956;BME280;59829;50.562;6.258;2023-07-24T16:41:38;94692.84;;;19.75;81.29
71956;BME280;59829;50.562;6.258;2023-07-24T16:51:39;94704.03;;;19.76;80.45
71956;BME280;59829;50.562;6.258;2023-07-24T17:01:39;94712.66;;;19.70;79.57
71956;BME280;59829;50.562;6.258;2023-07-24T17:11:39;94722.22;;;19.76;79.30
71956;BME280;59829;50.562;6.258;2023-07-24T17:21:40;94726.22;;;19.72;78.77
71956;BME280;59829;50.562;6.258;2023-07-24T17:31:40;94721.06;;;19.58;78.50
71956;BME280;59829;50.562;6.258;2023-07-24T17:41:42;94723.81;;;19.77;78.48
71956;BME280;59829;50.562;6.258;2023-07-24T17:51:42;94708.63;;;19.74;77.98
71956;BME280;59829;50.562;6.258;2023-07-24T18:01:43;94713.88;;;19.61;77.67
71956;BME280;59829;50.562;6.258;2023-07-24T18:11:43;94721.88;;;19.39;77.54
71956;BME280;59829;50.562;6.258;2023-07-24T18:21:43;94754.06;;;19.25;77.58
71956;BME280;59829;50.562;6.258;2023-07-24T18:31:44;94785.00;;;19.00;77.56
71956;BME280;59829;50.562;6.258;2023-07-24T18:41:45;94780.13;;;18.51;77.74
71956;BME280;59829;50.562;6.258;2023-07-24T18:51:46;94785.75;;;18.06;78.60
71956;BME280;59829;50.562;6.258;2023-07-24T19:01:46;94804.56;;;17.81;80.06
71956;BME280;59829;50.562;6.258;2023-07-24T19:11:47;94814.47;;;17.70;81.16
71956;BME280;59829;50.562;6.258;2023-07-24T19:21:47;94821.59;;;17.68;82.50
71956;BME280;59829;50.562;6.258;2023-07-24T19:31:47;94830.50;;;17.59;83.65
71956;BME280;59829;50.562;6.258;2023-07-24T19:41:49;94841.84;;;17.58;84.74
71956;BME280;59829;50.562;6.258;2023-07-24T19:51:51;94842.22;;;17.55;85.79
71956;BME280;59829;50.562;6.258;2023-07-24T20:01:52;94848.13;;;17.49;86.95
71956;BME280;59829;50.562;6.258;2023-07-24T20:11:53;94859.25;;;17.43;87.67
71956;BME280;59829;50.562;6.258;2023-07-24T20:21:53;94842.50;;;17.39;88.69
71956;BME280;59829;50.562;6.258;2023-07-24T20:31:54;94849.66;;;17.37;89.50
71956;BME280;59829;50.562;6.258;2023-07-24T20:41:54;94854.97;;;17.29;90.08
71956;BME280;59829;50.562;6.258;2023-07-24T20:51:54;94844.75;;;17.21;91.12
71956;BME280;59829;50.562;6.258;2023-07-24T21:01:55;94856.63;;;17.15;91.58
71956;BME280;59829;50.562;6.258;2023-07-24T21:11:55;94856.19;;;17.11;92.46
71956;BME280;59829;50.562;6.258;2023-07-24T21:21:56;94858.16;;;17.09;93.59
71956;BME280;59829;50.562;6.258;2023-07-24T21:31:57;94865.38;;;17.14;94.55
71956;BME280;59829;50.562;6.258;2023-07-24T21:41:58;94867.16;;;17.13;95.17
71956;BME280;59829;50.562;6.258;2023-07-24T21:51:58;94867.53;;;17.10;95.62
71956;BME280;59829;50.562;6.258;2023-07-24T22:02:00;94867.34;;;17.12;96.21
71956;BME280;59829;50.562;6.258;2023-07-24T22:12:01;94857.31;;;17.02;96.21
71956;BME280;59829;50.562;6.258;2023-07-24T22:22:01;94859.63;;;16.97;97.05
71956;BME280;59829;50.562;6.258;2023-07-24T22:32:02;94845.47;;;16.93;97.17
71956;BME280;59829;50.562;6.258;2023-07-24T22:42:02;94848.44;;;16.90;97.29
71956;BME280;59829;50.562;6.258;2023-07-24T22:52:03;94830.09;;;16.85;97.95
71956;BME280;59829;50.562;6.258;2023-07-24T23:02:05;94834.00;;;16.81;98.13
71956;BME280;59829;50.562;6.258;2023-07-24T23:12:06;94843.31;;;16.75;98.14
71956;BME280;59829;50.562;6.258;2023-07-24T23:22:06;94848.66;;;16.74;98.38
71956;BME280;59829;50.562;6.258;2023-07-24T23:32:07;94837.09;;;16.70;98.62
71956;BME280;59829;50.562;6.258;2023-07-24T23:42:07;94839.06;;;16.68;99.10
71956;BME280;59829;50.562;6.258;2023-07-24T23:52:08;94840.06;;;16.67;98.99
